sensor_id;sensor_type;location;lat;lon;timestamp;temperature;humidity
73688;SHT30;62257;48.376;-4.378;2022-09-09T00:00:53;16.79;86.00
73688;SHT30;62257;48.376;-4.378;2022-09-09T00:03:27;16.83;85.71
73688;SHT30;62257;48.376;-4.378;2022-09-09T00:06:29;16.83;85.51
73688;SHT30;62257;48.376;-4.378;2022-09-09T00:09:00;16.85;86.06
73688;SHT30;62257;48.376;-4.378;2022-09-09T00:11:51;16.85;85.79
73688;SHT30;62257;48.376;-4.378;2022-09-09T00:16:58;16.87;85.80
73688;SHT30;62257;48.376;-4.378;2022-09-09T00:19:46;16.86;85.54
73688;SHT30;62257;48.376;-4.378;2022-09-09T00:22:21;16.89;85.46
73688;SHT30;62257;48.376;-4.378;2022-09-09T00:24:52;16.92;85.44
73688;SHT30;62257;48.376;-4.378;2022-09-09T00:27:29;16.90;84.75
73688;SHT30;62257;48.376;-4.378;2022-09-09T00:30:32;16.87;85.02
73688;SHT30;62257;48.376;-4.378;2022-09-09T00:33:01;16.80;85.23
73688;SHT30;62257;48.376;-4.378;2022-09-09T00:35:33;16.77;85.29
73688;SHT30;62257;48.376;-4.378;2022-09-09T00:38:14;16.71;85.34
73688;SHT30;62257;48.376;-4.378;2022-09-09T00:40:48;16.69;85.48
73688;SHT30;62257;48.376;-4.378;2022-09-09T00:43:40;16.66;85.71
73688;SHT30;62257;48.376;-4.378;2022-09-09T00:54:28;16.61;86.14
73688;SHT30;62257;48.376;-4.378;2022-09-09T01:05:41;16.75;85.68
73688;SHT30;62257;48.376;-4.378;2022-09-09T01:10:52;16.77;85.46
73688;SHT30;62257;48.376;-4.378;2022-09-09T01:13:44;16.83;85.55
73688;SHT30;62257;48.376;-4.378;2022-09-09T01:16:12;16.83;85.34
73688;SHT30;62257;48.376;-4.378;2022-09-09T01:18:47;16.72;85.27
73688;SHT30;62257;48.376;-4.378;2022-09-09T01:21:34;16.75;85.16
73688;SHT30;62257;48.376;-4.378;2022-09-09T01:24:21;16.73;85.06
73688;SHT30;62257;48.376;-4.378;2022-09-09T01:26:48;16.79;84.72
73688;SHT30;62257;48.376;-4.378;2022-09-09T01:29:17;16.75;84.48
73688;SHT30;62257;48.376;-4.378;2022-09-09T01:32:00;16.71;84.58
73688;SHT30;62257;48.376;-4.378;2022-09-09T01:34:34;16.69;84.41
73688;SHT30;62257;48.376;-4.378;2022-09-09T01:37:06;16.66;84.72
73688;SHT30;62257;48.376;-4.378;2022-09-09T01:39:34;16.68;84.77
73688;SHT30;62257;48.376;-4.378;2022-09-09T01:42:00;16.68;84.96
73688;SHT30;62257;48.376;-4.378;2022-09-09T01:44:27;16.71;85.00
73688;SHT30;62257;48.376;-4.378;2022-09-09T01:46:53;16.72;85.24
73688;SHT30;62257;48.376;-4.378;2022-09-09T01:49:18;16.72;85.27
73688;SHT30;62257;48.376;-4.378;2022-09-09T01:51:45;16.72;85.07
73688;SHT30;62257;48.376;-4.378;2022-09-09T01:54:11;16.73;85.28
73688;SHT30;62257;48.376;-4.378;2022-09-09T01:57:15;16.68;85.36
73688;SHT30;62257;48.376;-4.378;2022-09-09T02:05:42;16.64;85.56
73688;SHT30;62257;48.376;-4.378;2022-09-09T02:08:17;16.64;85.56
73688;SHT30;62257;48.376;-4.378;2022-09-09T02:10:54;16.65;85.21
73688;SHT30;62257;48.376;-4.378;2022-09-09T02:13:22;16.64;85.20
73688;SHT30;62257;48.376;-4.378;2022-09-09T02:15:56;16.61;85.25
73688;SHT30;62257;48.376;-4.378;2022-09-09T02:18:35;16.57;85.00
73688;SHT30;62257;48.376;-4.378;2022-09-09T02:21:02;16.55;85.16
73688;SHT30;62257;48.376;-4.378;2022-09-09T02:23:28;16.55;85.11
73688;SHT30;62257;48.376;-4.378;2022-09-09T02:25:55;16.55;84.98
73688;SHT30;62257;48.376;-4.378;2022-09-09T02:28:24;16.52;84.88
73688;SHT30;62257;48.376;-4.378;2022-09-09T02:30:50;16.54;84.99
73688;SHT30;62257;48.376;-4.378;2022-09-09T02:33:24;16.59;84.94
73688;SHT30;62257;48.376;-4.378;2022-09-09T02:35:51;16.61;84.86
73688;SHT30;62257;48.376;-4.378;2022-09-09T02:38:17;16.66;84.58
73688;SHT30;62257;48.376;-4.378;2022-09-09T02:40:44;16.68;84.48
73688;SHT30;62257;48.376;-4.378;2022-09-09T02:43:10;16.71;84.53
73688;SHT30;62257;48.376;-4.378;2022-09-09T02:45:44;16.75;84.31
73688;SHT30;62257;48.376;-4.378;2022-09-09T02:51:10;16.73;83.90
73688;SHT30;62257;48.376;-4.378;2022-09-09T02:56:23;16.68;83.91
73688;SHT30;62257;48.376;-4.378;2022-09-09T02:58:51;16.65;84.18
73688;SHT30;62257;48.376;-4.378;2022-09-09T03:01:17;16.68;84.15
73688;SHT30;62257;48.376;-4.378;2022-09-09T03:03:42;16.68;84.32
73688;SHT30;62257;48.376;-4.378;2022-09-09T03:06:09;16.68;84.42
73688;SHT30;62257;48.376;-4.378;2022-09-09T03:08:37;16.71;84.30
73688;SHT30;62257;48.376;-4.378;2022-09-09T03:11:02;16.66;84.35
73688;SHT30;62257;48.376;-4.378;2022-09-09T03:13:28;16.69;84.10
73688;SHT30;62257;48.376;-4.378;2022-09-09T03:15:53;16.66;84.13
73688;SHT30;62257;48.376;-4.378;2022-09-09T03:18:18;16.71;83.80
73688;SHT30;62257;48.376;-4.378;2022-09-09T03:20:45;16.68;83.87
73688;SHT30;62257;48.376;-4.378;2022-09-09T03:23:11;16.62;83.70
73688;SHT30;62257;48.376;-4.378;2022-09-09T03:25:38;16.66;83.77
73688;SHT30;62257;48.376;-4.378;2022-09-09T03:28:04;16.72;83.80
73688;SHT30;62257;48.376;-4.378;2022-09-09T03:30:29;16.69;83.38
73688;SHT30;62257;48.376;-4.378;2022-09-09T03:32:55;16.65;83.35
73688;SHT30;62257;48.376;-4.378;2022-09-09T03:35:20;16.68;83.22
73688;SHT30;62257;48.376;-4.378;2022-09-09T03:37:46;16.64;83.34
73688;SHT30;62257;48.376;-4.378;2022-09-09T03:40:12;16.58;83.41
73688;SHT30;62257;48.376;-4.378;2022-09-09T03:42:38;16.61;83.33
73688;SHT30;62257;48.376;-4.378;2022-09-09T03:45:06;16.62;83.31
73688;SHT30;62257;48.376;-4.378;2022-09-09T03:47:31;16.64;83.16
73688;SHT30;62257;48.376;-4.378;2022-09-09T03:49:57;16.62;83.05
73688;SHT30;62257;48.376;-4.378;2022-09-09T03:52:22;16.68;83.01
73688;SHT30;62257;48.376;-4.378;2022-09-09T03:54:50;16.68;82.96
73688;SHT30;62257;48.376;-4.378;2022-09-09T03:57:16;16.68;82.90
73688;SHT30;62257;48.376;-4.378;2022-09-09T03:59:42;16.65;83.17
73688;SHT30;62257;48.376;-4.378;2022-09-09T04:02:08;16.59;83.43
73688;SHT30;62257;48.376;-4.378;2022-09-09T04:04:34;16.52;83.25
73688;SHT30;62257;48.376;-4.378;2022-09-09T04:06:59;16.49;83.46
73688;SHT30;62257;48.376;-4.378;2022-09-09T04:09:25;16.44;83.52
73688;SHT30;62257;48.376;-4.378;2022-09-09T04:11:50;16.44;83.76
73688;SHT30;62257;48.376;-4.378;2022-09-09T04:14:15;16.42;83.78
73688;SHT30;62257;48.376;-4.378;2022-09-09T04:16:41;16.47;83.38
73688;SHT30;62257;48.376;-4.378;2022-09-09T04:19:11;16.45;83.73
73688;SHT30;62257;48.376;-4.378;2022-09-09T04:21:40;16.48;83.49
73688;SHT30;62257;48.376;-4.378;2022-09-09T04:24:07;16.51;83.30
73688;SHT30;62257;48.376;-4.378;2022-09-09T04:26:33;16.52;83.51
73688;SHT30;62257;48.376;-4.378;2022-09-09T04:28:58;16.55;83.34
73688;SHT30;62257;48.376;-4.378;2022-09-09T04:31:24;16.54;83.06
73688;SHT30;62257;48.376;-4.378;2022-09-09T04:33:50;16.52;83.06
73688;SHT30;62257;48.376;-4.378;2022-09-09T04:36:16;16.51;83.11
73688;SHT30;62257;48.376;-4.378;2022-09-09T04:38:42;16.49;83.23
73688;SHT30;62257;48.376;-4.378;2022-09-09T04:41:08;16.48;83.18
73688;SHT30;62257;48.376;-4.378;2022-09-09T04:43:36;16.49;83.32
73688;SHT30;62257;48.376;-4.378;2022-09-09T04:46:02;16.52;83.10
73688;SHT30;62257;48.376;-4.378;2022-09-09T04:48:28;16.51;83.26
73688;SHT30;62257;48.376;-4.378;2022-09-09T04:51:04;16.54;83.17
73688;SHT30;62257;48.376;-4.378;2022-09-09T04:53:31;16.55;83.05
73688;SHT30;62257;48.376;-4.378;2022-09-09T04:56:10;16.48;83.21
73688;SHT30;62257;48.376;-4.378;2022-09-09T04:58:36;16.47;83.22
73688;SHT30;62257;48.376;-4.378;2022-09-09T05:01:10;16.41;83.28
73688;SHT30;62257;48.376;-4.378;2022-09-09T05:03:36;16.40;83.44
73688;SHT30;62257;48.376;-4.378;2022-09-09T05:06:10;16.32;83.72
73688;SHT30;62257;48.376;-4.378;2022-09-09T05:08:40;16.34;83.82
73688;SHT30;62257;48.376;-4.378;2022-09-09T05:11:17;16.37;83.66
73688;SHT30;62257;48.376;-4.378;2022-09-09T05:13:44;16.38;83.48
73688;SHT30;62257;48.376;-4.378;2022-09-09T05:16:09;16.44;83.64
73688;SHT30;62257;48.376;-4.378;2022-09-09T05:18:37;16.47;83.55
73688;SHT30;62257;48.376;-4.378;2022-09-09T05:21:03;16.49;83.45
73688;SHT30;62257;48.376;-4.378;2022-09-09T05:23:28;16.54;83.45
73688;SHT30;62257;48.376;-4.378;2022-09-09T05:25:57;16.64;83.44
73688;SHT30;62257;48.376;-4.378;2022-09-09T05:28:24;16.65;83.17
73688;SHT30;62257;48.376;-4.378;2022-09-09T05:33:23;16.69;83.11
73688;SHT30;62257;48.376;-4.378;2022-09-09T05:35:55;16.71;83.13
73688;SHT30;62257;48.376;-4.378;2022-09-09T05:38:21;16.72;83.08
73688;SHT30;62257;48.376;-4.378;2022-09-09T05:40:49;16.72;83.44
73688;SHT30;62257;48.376;-4.378;2022-09-09T05:43:15;16.72;83.45
73688;SHT30;62257;48.376;-4.378;2022-09-09T05:45:40;16.77;83.38
73688;SHT30;62257;48.376;-4.378;2022-09-09T05:48:06;16.76;83.22
73688;SHT30;62257;48.376;-4.378;2022-09-09T05:50:32;16.86;83.02
73688;SHT30;62257;48.376;-4.378;2022-09-09T05:52:58;16.89;82.75
73688;SHT30;62257;48.376;-4.378;2022-09-09T05:55:24;16.93;82.65
73688;SHT30;62257;48.376;-4.378;2022-09-09T05:57:50;16.97;82.55
73688;SHT30;62257;48.376;-4.378;2022-09-09T06:00:17;16.95;82.66
73688;SHT30;62257;48.376;-4.378;2022-09-09T06:02:42;16.95;82.75
73688;SHT30;62257;48.376;-4.378;2022-09-09T06:05:08;16.96;82.66
73688;SHT30;62257;48.376;-4.378;2022-09-09T06:07:36;16.97;82.65
73688;SHT30;62257;48.376;-4.378;2022-09-09T06:10:02;17.02;82.68
73688;SHT30;62257;48.376;-4.378;2022-09-09T06:12:28;16.99;82.88
73688;SHT30;62257;48.376;-4.378;2022-09-09T06:14:53;17.03;82.54
73688;SHT30;62257;48.376;-4.378;2022-09-09T06:17:18;17.09;83.05
73688;SHT30;62257;48.376;-4.378;2022-09-09T06:19:44;17.06;83.32
73688;SHT30;62257;48.376;-4.378;2022-09-09T06:22:09;16.96;83.90
73688;SHT30;62257;48.376;-4.378;2022-09-09T06:24:37;16.89;84.10
73688;SHT30;62257;48.376;-4.378;2022-09-09T06:27:03;16.90;84.12
73688;SHT30;62257;48.376;-4.378;2022-09-09T06:29:28;16.95;83.39
73688;SHT30;62257;48.376;-4.378;2022-09-09T06:31:54;16.96;83.17
73688;SHT30;62257;48.376;-4.378;2022-09-09T06:34:19;16.92;83.39
73688;SHT30;62257;48.376;-4.378;2022-09-09T06:36:45;16.97;83.01
73688;SHT30;62257;48.376;-4.378;2022-09-09T06:39:11;16.95;83.08
73688;SHT30;62257;48.376;-4.378;2022-09-09T06:41:37;16.90;83.12
73688;SHT30;62257;48.376;-4.378;2022-09-09T06:44:03;16.90;82.87
73688;SHT30;62257;48.376;-4.378;2022-09-09T06:46:30;16.86;83.19
73688;SHT30;62257;48.376;-4.378;2022-09-09T06:48:57;16.82;83.35
73688;SHT30;62257;48.376;-4.378;2022-09-09T06:51:34;16.79;83.26
73688;SHT30;62257;48.376;-4.378;2022-09-09T06:54:01;16.80;83.47
73688;SHT30;62257;48.376;-4.378;2022-09-09T06:56:38;16.93;82.96
73688;SHT30;62257;48.376;-4.378;2022-09-09T06:59:07;17.06;82.86
73688;SHT30;62257;48.376;-4.378;2022-09-09T07:01:43;17.24;82.36
73688;SHT30;62257;48.376;-4.378;2022-09-09T07:04:17;17.42;81.57
73688;SHT30;62257;48.376;-4.378;2022-09-09T07:06:44;17.57;81.39
73688;SHT30;62257;48.376;-4.378;2022-09-09T07:09:12;17.68;81.19
73688;SHT30;62257;48.376;-4.378;2022-09-09T07:11:40;17.65;80.51
73688;SHT30;62257;48.376;-4.378;2022-09-09T07:14:07;17.72;80.80
73688;SHT30;62257;48.376;-4.378;2022-09-09T07:16:33;17.77;81.09
73688;SHT30;62257;48.376;-4.378;2022-09-09T07:19:02;17.69;80.62
73688;SHT30;62257;48.376;-4.378;2022-09-09T07:21:29;17.85;80.96
73688;SHT30;62257;48.376;-4.378;2022-09-09T07:23:56;17.83;80.65
73688;SHT30;62257;48.376;-4.378;2022-09-09T07:26:24;17.92;80.57
73688;SHT30;62257;48.376;-4.378;2022-09-09T07:28:50;17.89;80.04
73688;SHT30;62257;48.376;-4.378;2022-09-09T07:31:22;17.93;80.14
73688;SHT30;62257;48.376;-4.378;2022-09-09T07:33:48;17.95;80.15
73688;SHT30;62257;48.376;-4.378;2022-09-09T07:36:22;17.99;79.73
73688;SHT30;62257;48.376;-4.378;2022-09-09T07:38:59;17.98;79.59
73688;SHT30;62257;48.376;-4.378;2022-09-09T07:41:39;18.06;80.14
73688;SHT30;62257;48.376;-4.378;2022-09-09T07:44:07;18.09;79.53
73688;SHT30;62257;48.376;-4.378;2022-09-09T07:46:34;18.09;79.63
73688;SHT30;62257;48.376;-4.378;2022-09-09T07:49:00;18.05;79.62
73688;SHT30;62257;48.376;-4.378;2022-09-09T07:51:28;18.13;79.69
73688;SHT30;62257;48.376;-4.378;2022-09-09T07:53:56;18.23;79.03
73688;SHT30;62257;48.376;-4.378;2022-09-09T07:56:24;18.47;78.31
73688;SHT30;62257;48.376;-4.378;2022-09-09T07:58:51;18.51;78.16
73688;SHT30;62257;48.376;-4.378;2022-09-09T08:01:31;18.79;77.46
73688;SHT30;62257;48.376;-4.378;2022-09-09T08:04:07;19.06;76.39
73688;SHT30;62257;48.376;-4.378;2022-09-09T08:06:41;18.94;75.53
73688;SHT30;62257;48.376;-4.378;2022-09-09T08:09:07;18.92;76.08
73688;SHT30;62257;48.376;-4.378;2022-09-09T08:11:33;18.99;76.33
73688;SHT30;62257;48.376;-4.378;2022-09-09T08:14:01;19.06;75.45
73688;SHT30;62257;48.376;-4.378;2022-09-09T08:16:30;19.13;75.77
73688;SHT30;62257;48.376;-4.378;2022-09-09T08:18:56;19.20;75.46
73688;SHT30;62257;48.376;-4.378;2022-09-09T08:21:27;19.36;75.65
73688;SHT30;62257;48.376;-4.378;2022-09-09T08:23:54;19.33;74.44
73688;SHT30;62257;48.376;-4.378;2022-09-09T08:26:22;19.40;74.18
73688;SHT30;62257;48.376;-4.378;2022-09-09T08:28:53;19.40;74.62
73688;SHT30;62257;48.376;-4.378;2022-09-09T08:31:20;19.49;74.62
73688;SHT30;62257;48.376;-4.378;2022-09-09T08:33:46;19.63;73.50
73688;SHT30;62257;48.376;-4.378;2022-09-09T08:36:17;19.77;73.49
73688;SHT30;62257;48.376;-4.378;2022-09-09T08:38:43;19.85;73.58
73688;SHT30;62257;48.376;-4.378;2022-09-09T08:43:41;19.78;73.74
73688;SHT30;62257;48.376;-4.378;2022-09-09T08:46:16;19.47;73.65
73688;SHT30;62257;48.376;-4.378;2022-09-09T08:49:17;19.57;74.39
73688;SHT30;62257;48.376;-4.378;2022-09-09T08:51:46;19.99;73.61
73688;SHT30;62257;48.376;-4.378;2022-09-09T08:54:13;19.79;72.26
73688;SHT30;62257;48.376;-4.378;2022-09-09T08:56:38;19.61;73.63
73688;SHT30;62257;48.376;-4.378;2022-09-09T08:59:04;19.63;73.59
73688;SHT30;62257;48.376;-4.378;2022-09-09T09:02:00;20.18;72.59
73688;SHT30;62257;48.376;-4.378;2022-09-09T09:13:00;20.11;71.38
73688;SHT30;62257;48.376;-4.378;2022-09-09T09:15:31;19.92;72.12
73688;SHT30;62257;48.376;-4.378;2022-09-09T09:18:02;19.67;72.65
73688;SHT30;62257;48.376;-4.378;2022-09-09T09:21:01;19.51;75.32
73688;SHT30;62257;48.376;-4.378;2022-09-09T09:23:40;19.19;74.65
73688;SHT30;62257;48.376;-4.378;2022-09-09T09:26:09;19.09;76.33
73688;SHT30;62257;48.376;-4.378;2022-09-09T09:28:36;19.26;76.45
73688;SHT30;62257;48.376;-4.378;2022-09-09T09:31:12;19.18;76.67
73688;SHT30;62257;48.376;-4.378;2022-09-09T09:33:52;19.09;75.67
73688;SHT30;62257;48.376;-4.378;2022-09-09T09:36:19;18.99;75.78
73688;SHT30;62257;48.376;-4.378;2022-09-09T09:39:03;19.06;75.37
73688;SHT30;62257;48.376;-4.378;2022-09-09T09:41:34;19.08;76.13
73688;SHT30;62257;48.376;-4.378;2022-09-09T09:44:01;19.06;75.10
73688;SHT30;62257;48.376;-4.378;2022-09-09T09:46:27;19.22;75.08
73688;SHT30;62257;48.376;-4.378;2022-09-09T09:49:04;19.39;74.78
73688;SHT30;62257;48.376;-4.378;2022-09-09T09:51:32;19.60;75.03
73688;SHT30;62257;48.376;-4.378;2022-09-09T09:56:39;20.09;73.11
73688;SHT30;62257;48.376;-4.378;2022-09-09T09:59:05;19.96;72.10
73688;SHT30;62257;48.376;-4.378;2022-09-09T10:01:44;19.86;72.84
73688;SHT30;62257;48.376;-4.378;2022-09-09T10:06:41;20.59;71.81
73688;SHT30;62257;48.376;-4.378;2022-09-09T10:09:28;20.91;69.93
73688;SHT30;62257;48.376;-4.378;2022-09-09T10:20:54;20.23;68.29
73688;SHT30;62257;48.376;-4.378;2022-09-09T10:31:50;20.04;69.33
73688;SHT30;62257;48.376;-4.378;2022-09-09T10:42:46;20.98;68.66
73688;SHT30;62257;48.376;-4.378;2022-09-09T10:45:29;21.11;66.56
73688;SHT30;62257;48.376;-4.378;2022-09-09T10:48:17;21.31;65.73
73688;SHT30;62257;48.376;-4.378;2022-09-09T10:50:52;21.24;65.62
73688;SHT30;62257;48.376;-4.378;2022-09-09T10:56:26;21.16;64.29
73688;SHT30;62257;48.376;-4.378;2022-09-09T10:59:16;19.96;71.78
73688;SHT30;62257;48.376;-4.378;2022-09-09T11:01:49;19.39;73.63
73688;SHT30;62257;48.376;-4.378;2022-09-09T11:04:24;19.06;74.71
73688;SHT30;62257;48.376;-4.378;2022-09-09T11:06:54;18.95;77.00
73688;SHT30;62257;48.376;-4.378;2022-09-09T11:09:28;18.61;77.61
73688;SHT30;62257;48.376;-4.378;2022-09-09T11:11:57;18.89;78.78
73688;SHT30;62257;48.376;-4.378;2022-09-09T11:17:03;19.33;76.89
73688;SHT30;62257;48.376;-4.378;2022-09-09T11:19:39;19.31;77.47
73688;SHT30;62257;48.376;-4.378;2022-09-09T11:22:13;19.13;77.18
73688;SHT30;62257;48.376;-4.378;2022-09-09T11:27:29;19.24;75.81
73688;SHT30;62257;48.376;-4.378;2022-09-09T11:38:31;19.34;74.08
73688;SHT30;62257;48.376;-4.378;2022-09-09T11:41:03;19.51;73.93
73688;SHT30;62257;48.376;-4.378;2022-09-09T11:43:52;19.64;75.40
73688;SHT30;62257;48.376;-4.378;2022-09-09T11:46:21;19.81;74.52
73688;SHT30;62257;48.376;-4.378;2022-09-09T11:49:02;19.86;75.10
73688;SHT30;62257;48.376;-4.378;2022-09-09T11:51:30;19.84;72.93
73688;SHT30;62257;48.376;-4.378;2022-09-09T11:56:34;19.68;70.21
73688;SHT30;62257;48.376;-4.378;2022-09-09T11:59:05;19.74;71.45
73688;SHT30;62257;48.376;-4.378;2022-09-09T12:01:44;19.60;70.61
73688;SHT30;62257;48.376;-4.378;2022-09-09T12:06:58;19.56;71.80
73688;SHT30;62257;48.376;-4.378;2022-09-09T12:11:50;19.71;71.31
73688;SHT30;62257;48.376;-4.378;2022-09-09T12:14:37;19.91;71.90
73688;SHT30;62257;48.376;-4.378;2022-09-09T12:17:17;19.96;70.42
73688;SHT30;62257;48.376;-4.378;2022-09-09T12:19:44;20.01;70.09
73688;SHT30;62257;48.376;-4.378;2022-09-09T12:33:34;19.95;68.66
73688;SHT30;62257;48.376;-4.378;2022-09-09T12:36:00;19.79;68.65
73688;SHT30;62257;48.376;-4.378;2022-09-09T12:38:36;19.70;68.63
73688;SHT30;62257;48.376;-4.378;2022-09-09T12:41:02;19.67;69.26
73688;SHT30;62257;48.376;-4.378;2022-09-09T12:43:28;19.82;70.00
73688;SHT30;62257;48.376;-4.378;2022-09-09T12:46:01;19.94;69.94
73688;SHT30;62257;48.376;-4.378;2022-09-09T12:48:32;20.13;70.27
73688;SHT30;62257;48.376;-4.378;2022-09-09T12:50:58;20.39;68.19
73688;SHT30;62257;48.376;-4.378;2022-09-09T12:53:30;20.54;68.23
73688;SHT30;62257;48.376;-4.378;2022-09-09T12:55:59;20.61;67.34
73688;SHT30;62257;48.376;-4.378;2022-09-09T12:58:26;20.69;67.52
73688;SHT30;62257;48.376;-4.378;2022-09-09T13:00:55;20.76;66.38
73688;SHT30;62257;48.376;-4.378;2022-09-09T13:03:22;20.71;66.78
73688;SHT30;62257;48.376;-4.378;2022-09-09T13:05:49;20.67;65.34
73688;SHT30;62257;48.376;-4.378;2022-09-09T13:08:16;20.61;66.13
73688;SHT30;62257;48.376;-4.378;2022-09-09T13:10:56;20.64;65.86
73688;SHT30;62257;48.376;-4.378;2022-09-09T13:13:38;20.73;65.36
73688;SHT30;62257;48.376;-4.378;2022-09-09T13:16:06;20.94;66.04
73688;SHT30;62257;48.376;-4.378;2022-09-09T13:18:40;21.15;64.92
73688;SHT30;62257;48.376;-4.378;2022-09-09T13:21:07;21.26;64.69
73688;SHT30;62257;48.376;-4.378;2022-09-09T13:23:35;21.34;64.17
73688;SHT30;62257;48.376;-4.378;2022-09-09T13:28:30;21.36;64.32
73688;SHT30;62257;48.376;-4.378;2022-09-09T13:31:19;21.29;63.63
73688;SHT30;62257;48.376;-4.378;2022-09-09T13:33:45;21.25;63.40
73688;SHT30;62257;48.376;-4.378;2022-09-09T13:36:12;21.39;63.80
73688;SHT30;62257;48.376;-4.378;2022-09-09T13:41:36;21.66;61.95
73688;SHT30;62257;48.376;-4.378;2022-09-09T13:44:27;21.53;61.84
73688;SHT30;62257;48.376;-4.378;2022-09-09T13:47:05;21.66;62.82
73688;SHT30;62257;48.376;-4.378;2022-09-09T13:49:32;21.52;62.58
73688;SHT30;62257;48.376;-4.378;2022-09-09T13:52:17;21.50;62.93
73688;SHT30;62257;48.376;-4.378;2022-09-09T13:54:50;21.56;61.92
73688;SHT30;62257;48.376;-4.378;2022-09-09T13:57:19;21.28;62.69
73688;SHT30;62257;48.376;-4.378;2022-09-09T13:59:46;21.26;63.52
73688;SHT30;62257;48.376;-4.378;2022-09-09T14:02:11;21.16;63.06
73688;SHT30;62257;48.376;-4.378;2022-09-09T14:04:37;20.98;63.22
73688;SHT30;62257;48.376;-4.378;2022-09-09T14:07:03;20.92;64.18
73688;SHT30;62257;48.376;-4.378;2022-09-09T14:09:29;20.88;64.03
73688;SHT30;62257;48.376;-4.378;2022-09-09T14:11:54;20.94;64.41
73688;SHT30;62257;48.376;-4.378;2022-09-09T14:14:22;20.99;65.02
73688;SHT30;62257;48.376;-4.378;2022-09-09T14:16:48;20.95;65.56
73688;SHT30;62257;48.376;-4.378;2022-09-09T14:19:14;20.73;66.19
73688;SHT30;62257;48.376;-4.378;2022-09-09T14:21:39;20.66;66.53
73688;SHT30;62257;48.376;-4.378;2022-09-09T14:24:05;20.59;66.41
73688;SHT30;62257;48.376;-4.378;2022-09-09T14:26:31;20.64;66.68
73688;SHT30;62257;48.376;-4.378;2022-09-09T14:28:57;20.64;66.82
73688;SHT30;62257;48.376;-4.378;2022-09-09T14:31:23;20.61;66.02
73688;SHT30;62257;48.376;-4.378;2022-09-09T14:33:49;20.66;65.59
73688;SHT30;62257;48.376;-4.378;2022-09-09T14:36:16;20.77;65.97
73688;SHT30;62257;48.376;-4.378;2022-09-09T14:38:41;20.84;64.77
73688;SHT30;62257;48.376;-4.378;2022-09-09T14:41:13;20.66;65.44
73688;SHT30;62257;48.376;-4.378;2022-09-09T14:43:40;20.51;65.75
73688;SHT30;62257;48.376;-4.378;2022-09-09T14:46:10;20.54;66.91
73688;SHT30;62257;48.376;-4.378;2022-09-09T14:48:37;20.44;66.73
73688;SHT30;62257;48.376;-4.378;2022-09-09T14:51:10;20.54;67.23
73688;SHT30;62257;48.376;-4.378;2022-09-09T14:53:36;20.37;67.74
73688;SHT30;62257;48.376;-4.378;2022-09-09T14:56:06;20.42;68.13
73688;SHT30;62257;48.376;-4.378;2022-09-09T14:58:32;20.44;69.21
73688;SHT30;62257;48.376;-4.378;2022-09-09T15:01:27;20.70;68.72
73688;SHT30;62257;48.376;-4.378;2022-09-09T15:03:55;20.90;67.57
73688;SHT30;62257;48.376;-4.378;2022-09-09T15:06:22;20.85;66.89
73688;SHT30;62257;48.376;-4.378;2022-09-09T15:08:50;20.95;67.06
73688;SHT30;62257;48.376;-4.378;2022-09-09T15:11:17;20.74;66.01
73688;SHT30;62257;48.376;-4.378;2022-09-09T15:13:44;20.63;67.29
73688;SHT30;62257;48.376;-4.378;2022-09-09T15:16:16;20.57;67.66
73688;SHT30;62257;48.376;-4.378;2022-09-09T15:18:42;20.64;67.96
73688;SHT30;62257;48.376;-4.378;2022-09-09T15:21:11;20.57;67.48
73688;SHT30;62257;48.376;-4.378;2022-09-09T15:23:37;20.57;67.47
73688;SHT30;62257;48.376;-4.378;2022-09-09T15:26:03;20.47;66.39
73688;SHT30;62257;48.376;-4.378;2022-09-09T15:28:29;20.21;65.76
73688;SHT30;62257;48.376;-4.378;2022-09-09T15:30:56;20.21;66.45
73688;SHT30;62257;48.376;-4.378;2022-09-09T15:33:22;20.34;66.25
73688;SHT30;62257;48.376;-4.378;2022-09-09T15:35:48;20.12;65.40
73688;SHT30;62257;48.376;-4.378;2022-09-09T15:38:15;20.11;66.64
73688;SHT30;62257;48.376;-4.378;2022-09-09T15:40:42;20.09;67.70
73688;SHT30;62257;48.376;-4.378;2022-09-09T15:43:08;20.18;67.27
73688;SHT30;62257;48.376;-4.378;2022-09-09T15:45:36;20.19;67.18
73688;SHT30;62257;48.376;-4.378;2022-09-09T15:48:03;20.04;68.13
73688;SHT30;62257;48.376;-4.378;2022-09-09T15:50:29;19.94;69.13
73688;SHT30;62257;48.376;-4.378;2022-09-09T15:52:56;19.99;68.86
73688;SHT30;62257;48.376;-4.378;2022-09-09T15:55:22;20.05;69.46
73688;SHT30;62257;48.376;-4.378;2022-09-09T15:57:49;20.09;68.74
73688;SHT30;62257;48.376;-4.378;2022-09-09T16:00:17;20.02;68.37
73688;SHT30;62257;48.376;-4.378;2022-09-09T16:02:43;19.98;68.52
73688;SHT30;62257;48.376;-4.378;2022-09-09T16:05:08;19.86;69.04
73688;SHT30;62257;48.376;-4.378;2022-09-09T16:07:34;19.68;69.59
73688;SHT30;62257;48.376;-4.378;2022-09-09T16:10:00;19.70;69.85
73688;SHT30;62257;48.376;-4.378;2022-09-09T16:12:25;19.63;69.87
73688;SHT30;62257;48.376;-4.378;2022-09-09T16:14:51;19.61;70.36
73688;SHT30;62257;48.376;-4.378;2022-09-09T16:17:17;19.61;70.59
73688;SHT30;62257;48.376;-4.378;2022-09-09T16:19:44;19.46;70.53
73688;SHT30;62257;48.376;-4.378;2022-09-09T16:22:11;19.24;70.86
73688;SHT30;62257;48.376;-4.378;2022-09-09T16:24:36;19.24;71.04
73688;SHT30;62257;48.376;-4.378;2022-09-09T16:27:02;19.20;71.14
73688;SHT30;62257;48.376;-4.378;2022-09-09T16:29:27;19.36;71.11
73688;SHT30;62257;48.376;-4.378;2022-09-09T16:31:54;19.51;70.88
73688;SHT30;62257;48.376;-4.378;2022-09-09T16:34:20;19.61;70.79
73688;SHT30;62257;48.376;-4.378;2022-09-09T16:36:47;19.64;71.15
73688;SHT30;62257;48.376;-4.378;2022-09-09T16:39:18;19.60;70.60
73688;SHT30;62257;48.376;-4.378;2022-09-09T16:41:45;19.70;70.15
73688;SHT30;62257;48.376;-4.378;2022-09-09T16:44:12;19.99;69.51
73688;SHT30;62257;48.376;-4.378;2022-09-09T16:46:40;20.16;68.50
73688;SHT30;62257;48.376;-4.378;2022-09-09T16:49:08;20.30;68.01
73688;SHT30;62257;48.376;-4.378;2022-09-09T16:51:38;20.44;68.31
73688;SHT30;62257;48.376;-4.378;2022-09-09T16:54:06;20.25;67.40
73688;SHT30;62257;48.376;-4.378;2022-09-09T16:56:33;19.99;67.96
73688;SHT30;62257;48.376;-4.378;2022-09-09T16:59:01;20.12;68.65
73688;SHT30;62257;48.376;-4.378;2022-09-09T17:01:29;20.18;68.41
73688;SHT30;62257;48.376;-4.378;2022-09-09T17:03:55;20.11;68.10
73688;SHT30;62257;48.376;-4.378;2022-09-09T17:06:22;19.88;69.14
73688;SHT30;62257;48.376;-4.378;2022-09-09T17:08:54;19.91;69.70
73688;SHT30;62257;48.376;-4.378;2022-09-09T17:11:20;19.85;70.02
73688;SHT30;62257;48.376;-4.378;2022-09-09T17:13:46;19.91;69.72
73688;SHT30;62257;48.376;-4.378;2022-09-09T17:16:13;19.73;70.30
73688;SHT30;62257;48.376;-4.378;2022-09-09T17:18:40;19.61;70.28
73688;SHT30;62257;48.376;-4.378;2022-09-09T17:21:11;19.64;70.65
73688;SHT30;62257;48.376;-4.378;2022-09-09T17:23:38;19.73;71.05
73688;SHT30;62257;48.376;-4.378;2022-09-09T17:26:05;19.70;70.23
73688;SHT30;62257;48.376;-4.378;2022-09-09T17:28:33;19.49;69.78
73688;SHT30;62257;48.376;-4.378;2022-09-09T17:30:59;19.41;69.37